Time,TemperatureF,DewpointF,PressureIn,WindDirection,WindDirectionDegrees,WindSpeedMPH,WindSpeedGustMPH,Humidity,HourlyPrecipIn,Conditions,Clouds,dailyrainin,SoftwareType,DateUTC
2013-02-02 00:03:00,17.0,4.0,30.50,WSW,238,0.0,0.0,56,0.00,,,0.00,,2013-02-02 05:03:00,
2013-02-02 00:12:00,17.0,4.0,30.50,WSW,238,0.0,0.0,56,0.00,,,0.00,,2013-02-02 05:12:00,
2013-02-02 00:22:00,17.0,4.0,30.50,WSW,238,0.0,2.0,56,0.00,,,0.00,,2013-02-02 05:22:00,
2013-02-02 00:33:00,17.0,5.0,30.50,WSW,238,0.0,1.0,59,0.00,,,0.00,,2013-02-02 05:33:00,
2013-02-02 00:42:00,17.0,5.0,30.50,WSW,238,0.0,1.0,59,0.00,,,0.00,,2013-02-02 05:42:00,
2013-02-02 00:52:00,17.0,3.0,30.51,WSW,238,0.0,2.0,54,0.00,,,0.00,,2013-02-02 05:52:00,
2013-02-02 01:02:00,17.0,6.0,30.51,WSW,238,0.0,0.0,61,0.00,,,0.00,,2013-02-02 06:02:00,
2013-02-02 01:12:00,17.0,6.0,30.51,WSW,238,0.0,0.0,61,0.00,,,0.00,,2013-02-02 06:12:00,
2013-02-02 01:22:00,17.0,5.0,30.52,WSW,238,0.0,0.0,59,0.00,,,0.00,,2013-02-02 06:22:00,
2013-02-02 01:32:00,17.0,6.0,30.52,WSW,238,0.0,0.0,61,0.00,,,0.00,,2013-02-02 06:32:00,
2013-02-02 01:42:00,17.0,6.0,30.52,WSW,238,0.0,0.0,61,0.00,,,0.00,,2013-02-02 06:42:00,
2013-02-02 01:52:00,16.0,4.0,30.52,WSW,238,0.0,1.0,59,0.00,,,0.00,,2013-02-02 06:52:00,
2013-02-02 02:02:00,17.0,4.0,30.51,WSW,238,0.0,0.0,57,0.00,,,0.00,,2013-02-02 07:02:00,
2013-02-02 02:12:00,17.0,4.0,30.51,WSW,238,0.0,0.0,57,0.00,,,0.00,,2013-02-02 07:12:00,
2013-02-02 02:21:00,17.0,4.0,30.51,WSW,238,0.0,0.0,57,0.00,,,0.00,,2013-02-02 07:21:00,
2013-02-02 02:32:00,17.0,6.0,30.50,WSW,238,0.0,0.0,62,0.00,,,0.00,,2013-02-02 07:32:00,
2013-02-02 02:42:00,17.0,6.0,30.50,WSW,238,0.0,0.0,62,0.00,,,0.00,,2013-02-02 07:42:00,
2013-02-02 02:52:00,17.0,6.0,30.50,WSW,238,0.0,0.0,60,0.00,,,0.00,,2013-02-02 07:52:00,
2013-02-02 03:01:00,17.0,5.0,30.50,WSW,238,0.0,0.0,58,0.00,,,0.00,,2013-02-02 08:01:00,
2013-02-02 03:11:00,17.0,5.0,30.50,WSW,238,0.0,0.0,58,0.00,,,0.00,,2013-02-02 08:11:00,
2013-02-02 03:21:00,17.0,7.0,30.51,WSW,238,0.0,0.0,64,0.00,,,0.00,,2013-02-02 08:21:00,
2013-02-02 03:31:00,17.0,8.0,30.51,WSW,238,0.0,0.0,68,0.00,,,0.00,,2013-02-02 08:31:00,
2013-02-02 03:41:00,17.0,8.0,30.51,WSW,238,0.0,0.0,68,0.00,,,0.00,,2013-02-02 08:41:00,
2013-02-02 03:53:00,17.0,8.0,30.51,WSW,238,0.0,0.0,68,0.00,,,0.00,,2013-02-02 08:53:00,
2013-02-02 04:01:00,17.0,7.0,30.50,WSW,238,0.0,0.0,64,0.00,,,0.00,,2013-02-02 09:01:00,
2013-02-02 04:11:00,17.0,7.0,30.50,WSW,238,0.0,0.0,64,0.00,,,0.00,,2013-02-02 09:11:00,
2013-02-02 04:22:00,17.0,7.0,30.50,WSW,238,0.0,0.0,65,0.00,,,0.00,,2013-02-02 09:22:00,
2013-02-02 04:32:00,17.0,6.0,30.49,WSW,238,0.0,0.0,62,0.00,,,0.00,,2013-02-02 09:32:00,
2013-02-02 04:42:00,17.0,6.0,30.49,WSW,238,0.0,0.0,62,0.00,,,0.00,,2013-02-02 09:42:00,
2013-02-02 04:52:00,17.0,7.0,30.49,WSW,238,0.0,0.0,65,0.00,,,0.00,,2013-02-02 09:52:00,
2013-02-02 05:02:00,17.0,8.0,30.49,WSW,238,0.0,1.0,66,0.00,,,0.00,,2013-02-02 10:02:00,
2013-02-02 05:11:00,17.0,8.0,30.49,WSW,238,0.0,1.0,66,0.00,,,0.00,,2013-02-02 10:11:00,
2013-02-02 05:21:00,17.0,8.0,30.49,WSW,238,0.0,0.0,68,0.00,,,0.00,,2013-02-02 10:21:00,
2013-02-02 05:32:00,17.0,7.0,30.50,WSW,238,0.0,0.0,64,0.00,,,0.00,,2013-02-02 10:32:00,
2013-02-02 05:42:00,17.0,7.0,30.50,WSW,238,0.0,0.0,64,0.00,,,0.00,,2013-02-02 10:42:00,
2013-02-02 05:52:00,17.0,8.0,30.50,WSW,238,0.0,0.0,66,0.00,,,0.00,,2013-02-02 10:52:00,
2013-02-02 06:02:00,16.0,6.0,30.50,WSW,238,0.0,0.0,64,0.00,,,0.00,,2013-02-02 11:02:00,
2013-02-02 06:22:00,16.0,7.0,30.50,WSW,238,0.0,0.0,66,0.00,,,0.00,,2013-02-02 11:22:00,
2013-02-02 06:32:00,16.0,8.0,30.50,WSW,238,0.0,0.0,69,0.00,,,0.00,,2013-02-02 11:32:00,
2013-02-02 06:42:00,16.0,8.0,30.50,WSW,238,0.0,0.0,69,0.00,,,0.00,,2013-02-02 11:42:00,
2013-02-02 06:52:00,16.0,8.0,30.50,WSW,238,0.0,0.0,70,0.00,,,0.00,,2013-02-02 11:52:00,
2013-02-02 07:02:00,16.0,8.0,30.51,WSW,238,0.0,0.0,69,0.00,,,0.00,,2013-02-02 12:02:00,
2013-02-02 07:22:00,16.0,8.0,30.51,WSW,238,0.0,0.0,70,0.00,,,0.00,,2013-02-02 12:22:00,
2013-02-02 07:32:00,16.0,7.0,30.51,WSW,238,0.0,0.0,67,0.00,,,0.00,,2013-02-02 12:32:00,
2013-02-02 07:42:00,16.0,7.0,30.51,WSW,238,0.0,0.0,67,0.00,,,0.00,,2013-02-02 12:42:00,
2013-02-02 07:52:00,16.0,6.0,30.51,WSW,238,0.0,1.0,65,0.00,,,0.00,,2013-02-02 12:52:00,
2013-02-02 08:03:00,16.0,6.0,30.51,WSW,238,0.0,0.0,65,0.00,,,0.00,,2013-02-02 13:03:00,
2013-02-02 08:22:00,16.0,7.0,30.51,WSW,238,0.0,0.0,68,0.00,,,0.00,,2013-02-02 13:22:00,
2013-02-02 08:32:00,17.0,10.0,30.52,WSW,238,0.0,0.0,72,0.00,,,0.00,,2013-02-02 13:32:00,
2013-02-02 08:42:00,17.0,10.0,30.52,WSW,238,0.0,0.0,72,0.00,,,0.00,,2013-02-02 13:42:00,
2013-02-02 08:52:00,17.0,9.0,30.51,WSW,238,0.0,0.0,71,0.00,,,0.00,,2013-02-02 13:52:00,
2013-02-02 09:03:00,18.0,11.0,30.51,WSW,238,0.0,1.0,72,0.00,,,0.00,,2013-02-02 14:03:00,
2013-02-02 09:11:00,18.0,11.0,30.51,WSW,238,0.0,1.0,72,0.00,,,0.00,,2013-02-02 14:11:00,
2013-02-02 09:22:00,19.0,11.0,30.51,WSW,238,0.0,1.0,71,0.00,,,0.00,,2013-02-02 14:22:00,
2013-02-02 09:32:00,20.0,12.0,30.51,WSW,238,0.0,1.0,70,0.00,,,0.00,,2013-02-02 14:32:00,
2013-02-02 09:42:00,20.0,12.0,30.51,WSW,238,0.0,1.0,70,0.00,,,0.00,,2013-02-02 14:42:00,
2013-02-02 09:52:00,21.0,12.0,30.50,WSW,238,0.0,1.0,68,0.00,,,0.00,,2013-02-02 14:52:00,
2013-02-02 10:03:00,22.0,12.0,30.49,WSW,238,0.0,1.0,66,0.00,,,0.00,,2013-02-02 15:03:00,
2013-02-02 10:12:00,22.0,12.0,30.49,WSW,238,0.0,1.0,66,0.00,,,0.00,,2013-02-02 15:12:00,
2013-02-02 10:22:00,23.0,12.0,30.48,South,171,0.0,2.0,63,0.00,,,0.00,,2013-02-02 15:22:00,
2013-02-02 10:32:00,24.0,14.0,30.48,SSE,167,0.0,2.0,65,0.00,,,0.00,,2013-02-02 15:32:00,
2013-02-02 10:42:00,24.0,14.0,30.48,SSE,167,0.0,2.0,65,0.00,,,0.00,,2013-02-02 15:42:00,
2013-02-02 10:52:00,25.0,13.0,30.47,ENE,60,0.0,3.0,60,0.00,,,0.00,,2013-02-02 15:52:00,
2013-02-02 11:03:00,26.0,16.0,30.48,SE,129,0.0,3.0,65,0.00,,,0.00,,2013-02-02 16:03:00,
2013-02-02 11:12:00,26.0,16.0,30.48,SE,129,0.0,3.0,65,0.00,,,0.00,,2013-02-02 16:12:00,
2013-02-02 11:23:00,27.0,14.0,30.49,ESE,102,0.0,3.0,58,0.00,,,0.00,,2013-02-02 16:23:00,
2013-02-02 11:32:00,28.0,15.0,30.48,ENE,76,0.0,2.0,57,0.00,,,0.00,,2013-02-02 16:32:00,
2013-02-02 11:42:00,28.0,15.0,30.48,ENE,76,0.0,2.0,57,0.00,,,0.00,,2013-02-02 16:42:00,
2013-02-02 11:52:00,28.0,16.0,30.49,WNW,291,0.0,3.0,59,0.00,,,0.00,,2013-02-02 16:52:00,
2013-02-02 12:03:00,30.0,17.0,30.49,SE,134,0.0,11.0,57,0.00,,,0.00,,2013-02-02 17:03:00,
2013-02-02 12:11:00,30.0,17.0,30.49,SE,134,0.0,11.0,57,0.00,,,0.00,,2013-02-02 17:11:00,
2013-02-02 12:22:00,31.0,19.0,30.47,South,184,0.0,5.0,60,0.00,,,0.00,,2013-02-02 17:22:00,
2013-02-02 12:32:00,31.0,18.0,30.47,SSW,203,4.0,10.0,58,0.00,,,0.00,,2013-02-02 17:32:00,
2013-02-02 12:42:00,31.0,18.0,30.47,SSW,203,4.0,10.0,58,0.00,,,0.00,,2013-02-02 17:42:00,
2013-02-02 12:53:00,31.0,23.0,30.46,SSW,199,7.0,16.0,72,0.00,,,0.00,,2013-02-02 17:53:00,
2013-02-02 13:03:00,30.0,23.0,30.45,WSW,241,3.0,15.0,74,0.00,,,0.00,,2013-02-02 18:03:00,
2013-02-02 13:12:00,30.0,23.0,30.45,WSW,241,3.0,15.0,74,0.00,,,0.00,,2013-02-02 18:12:00,
2013-02-02 13:22:00,28.0,23.0,30.44,West,262,0.0,6.0,80,0.00,,,0.00,,2013-02-02 18:22:00,
2013-02-02 13:32:00,28.0,24.0,30.42,East,101,0.0,2.0,84,0.00,,,0.00,,2013-02-02 18:32:00,
2013-02-02 13:42:00,28.0,24.0,30.42,East,101,0.0,2.0,84,0.00,,,0.00,,2013-02-02 18:42:00,
2013-02-02 13:52:00,28.0,24.0,30.40,North,360,0.0,2.0,86,0.00,,,0.00,,2013-02-02 18:52:00,
2013-02-02 14:02:00,28.0,25.0,30.39,North,360,0.0,0.0,88,0.00,,,0.00,,2013-02-02 19:02:00,
2013-02-02 14:12:00,28.0,25.0,30.39,North,360,0.0,0.0,88,0.00,,,0.00,,2013-02-02 19:12:00,
2013-02-02 14:22:00,27.0,24.0,30.38,North,360,0.0,0.0,88,0.00,,,0.00,,2013-02-02 19:22:00,
2013-02-02 14:32:00,27.0,24.0,30.37,East,98,0.0,1.0,90,0.00,,,0.00,,2013-02-02 19:32:00,
2013-02-02 14:42:00,27.0,24.0,30.37,East,98,0.0,1.0,90,0.00,,,0.00,,2013-02-02 19:42:00,
2013-02-02 14:52:00,28.0,25.0,30.36,East,98,0.0,1.0,89,0.00,,,0.00,,2013-02-02 19:52:00,
2013-02-02 15:01:00,27.0,24.0,30.35,East,98,0.0,1.0,89,0.00,,,0.00,,2013-02-02 20:01:00,
2013-02-02 15:12:00,27.0,24.0,30.35,East,98,0.0,1.0,89,0.00,,,0.00,,2013-02-02 20:12:00,
2013-02-02 15:22:00,27.0,24.0,30.35,East,98,0.0,0.0,89,0.00,,,0.00,,2013-02-02 20:22:00,
2013-02-02 15:32:00,27.0,24.0,30.34,East,98,0.0,1.0,90,0.00,,,0.00,,2013-02-02 20:32:00,
2013-02-02 15:42:00,27.0,24.0,30.34,East,98,0.0,1.0,90,0.00,,,0.00,,2013-02-02 20:42:00,
2013-02-02 15:52:00,27.0,24.0,30.33,East,98,0.0,0.0,90,0.00,,,0.00,,2013-02-02 20:52:00,
2013-02-02 16:02:00,27.0,24.0,30.33,East,98,0.0,0.0,90,0.00,,,0.00,,2013-02-02 21:02:00,
2013-02-02 16:11:00,27.0,24.0,30.33,East,98,0.0,0.0,90,0.00,,,0.00,,2013-02-02 21:11:00,
2013-02-02 16:21:00,27.0,25.0,30.33,East,98,0.0,0.0,91,0.00,,,0.00,,2013-02-02 21:21:00,
2013-02-02 16:32:00,26.0,24.0,30.32,East,98,0.0,0.0,91,0.00,,,0.00,,2013-02-02 21:32:00,
2013-02-02 16:42:00,26.0,24.0,30.32,East,98,0.0,0.0,91,0.00,,,0.00,,2013-02-02 21:42:00,
2013-02-02 16:52:00,26.0,24.0,30.32,East,98,0.0,1.0,92,0.00,,,0.00,,2013-02-02 21:52:00,
2013-02-02 17:03:00,26.0,24.0,30.32,East,98,0.0,2.0,93,0.00,,,0.00,,2013-02-02 22:03:00,
2013-02-02 17:12:00,26.0,24.0,30.32,East,98,0.0,2.0,93,0.00,,,0.00,,2013-02-02 22:12:00,
2013-02-02 17:21:00,26.0,24.0,30.32,East,98,0.0,0.0,93,0.00,,,0.00,,2013-02-02 22:21:00,
2013-02-02 17:32:00,26.0,24.0,30.31,East,84,0.0,2.0,93,0.00,,,0.00,,2013-02-02 22:32:00,
2013-02-02 17:42:00,26.0,24.0,30.31,East,84,0.0,2.0,93,0.00,,,0.00,,2013-02-02 22:42:00,
2013-02-02 17:52:00,26.0,24.0,30.31,East,84,0.0,0.0,93,0.00,,,0.00,,2013-02-02 22:52:00,
2013-02-02 18:02:00,26.0,24.0,30.29,East,84,0.0,1.0,93,0.00,,,0.00,,2013-02-02 23:02:00,
2013-02-02 18:11:00,26.0,24.0,30.29,East,84,0.0,1.0,93,0.00,,,0.00,,2013-02-02 23:11:00,
2013-02-02 18:22:00,26.0,25.0,30.30,East,84,0.0,1.0,94,0.00,,,0.00,,2013-02-02 23:22:00,
2013-02-02 18:32:00,27.0,26.0,30.30,SSE,148,0.0,4.0,94,0.00,,,0.00,,2013-02-02 23:32:00,
2013-02-02 18:42:00,27.0,26.0,30.30,SSE,148,0.0,4.0,94,0.00,,,0.00,,2013-02-02 23:42:00,
2013-02-02 18:52:00,27.0,26.0,30.30,East,91,0.0,4.0,94,0.00,,,0.00,,2013-02-02 23:52:00,
2013-02-02 19:02:00,28.0,27.0,30.30,SSW,203,2.0,6.0,95,0.00,,,0.00,,2013-02-03 00:02:00,
2013-02-02 19:11:00,28.0,27.0,30.30,SSW,203,2.0,6.0,95,0.00,,,0.00,,2013-02-03 00:11:00,
2013-02-02 19:22:00,29.0,28.0,30.30,ESE,115,0.0,3.0,96,0.00,,,0.00,,2013-02-03 00:22:00,
2013-02-02 19:32:00,29.0,28.0,30.31,SE,146,0.0,6.0,96,0.00,,,0.00,,2013-02-03 00:32:00,
2013-02-02 19:42:00,29.0,28.0,30.31,SE,146,0.0,6.0,96,0.00,,,0.00,,2013-02-03 00:42:00,
2013-02-02 19:52:00,30.0,29.0,30.30,WSW,248,4.0,9.0,96,0.00,,,0.00,,2013-02-03 00:52:00,
2013-02-02 20:02:00,30.0,29.0,30.31,South,187,0.0,5.0,95,0.00,,,0.00,,2013-02-03 01:02:00,
2013-02-02 20:11:00,30.0,29.0,30.31,South,187,0.0,5.0,95,0.00,,,0.00,,2013-02-03 01:11:00,
2013-02-02 20:21:00,30.0,29.0,30.31,SE,139,1.0,7.0,95,0.00,,,0.00,,2013-02-03 01:21:00,
2013-02-02 20:32:00,30.0,29.0,30.31,South,189,0.0,4.0,95,0.00,,,0.00,,2013-02-03 01:32:00,
2013-02-02 20:42:00,30.0,29.0,30.31,South,189,0.0,4.0,95,0.00,,,0.00,,2013-02-03 01:42:00,
2013-02-02 20:52:00,30.0,29.0,30.31,SSE,154,1.0,7.0,95,0.00,,,0.00,,2013-02-03 01:52:00,
2013-02-02 21:01:00,30.0,29.0,30.30,SSW,198,0.0,4.0,95,0.00,,,0.00,,2013-02-03 02:01:00,
2013-02-02 21:11:00,30.0,29.0,30.30,SSW,198,0.0,4.0,95,0.00,,,0.00,,2013-02-03 02:11:00,
2013-02-02 21:21:00,30.0,29.0,30.30,SSE,158,1.0,8.0,95,0.00,,,0.00,,2013-02-03 02:21:00,
2013-02-02 21:32:00,30.0,28.0,30.30,ESE,113,0.0,6.0,94,0.00,,,0.00,,2013-02-03 02:32:00,
2013-02-02 21:42:00,30.0,28.0,30.30,ESE,113,0.0,6.0,94,0.00,,,0.00,,2013-02-03 02:42:00,
2013-02-02 21:52:00,31.0,29.0,30.30,SE,127,1.0,9.0,94,0.00,,,0.00,,2013-02-03 02:52:00,
2013-02-02 22:02:00,31.0,29.0,30.30,ESE,113,1.0,4.0,94,0.00,,,0.00,,2013-02-03 03:02:00,
2013-02-02 22:11:00,31.0,29.0,30.30,ESE,113,1.0,4.0,94,0.00,,,0.00,,2013-02-03 03:11:00,
2013-02-02 22:22:00,30.0,28.0,30.30,ESE,109,0.0,3.0,94,0.00,,,0.00,,2013-02-03 03:22:00,
2013-02-02 22:32:00,30.0,28.0,30.30,SSE,147,4.0,10.0,94,0.00,,,0.00,,2013-02-03 03:32:00,
2013-02-02 22:42:00,30.0,28.0,30.30,SSE,147,4.0,10.0,94,0.00,,,0.00,,2013-02-03 03:42:00,
2013-02-02 22:52:00,30.0,28.0,30.29,ESE,111,0.0,8.0,94,0.00,,,0.00,,2013-02-03 03:52:00,
2013-02-02 23:01:00,30.0,28.0,30.29,ESE,111,0.0,8.0,94,0.00,,,0.00,,2013-02-03 04:01:00,
2013-02-02 23:11:00,30.0,28.0,30.29,ESE,111,0.0,8.0,94,0.00,,,0.00,,2013-02-03 04:11:00,
2013-02-02 23:22:00,30.0,28.0,30.28,NE,56,0.0,4.0,94,0.00,,,0.00,,2013-02-03 04:22:00,
2013-02-02 23:32:00,30.0,28.0,30.27,ESE,115,0.0,7.0,93,0.00,,,0.00,,2013-02-03 04:32:00,
2013-02-02 23:42:00,30.0,28.0,30.27,ESE,115,0.0,7.0,93,0.00,,,0.00,,2013-02-03 04:42:00,
2013-02-02 23:52:00,30.0,28.0,30.27,SSE,150,1.0,7.0,93,0.00,,,0.00,,2013-02-03 04:52:00,